sensor_id;sensor_type;location;lat;lon;timestamp;P1;durP1;ratioP1;P2;durP2;ratioP2
19255;SDS011;9762;52.490;13.410;2023-04-25T00:02:24;1.97;;;1.87;;
19255;SDS011;9762;52.490;13.410;2023-04-25T00:04:50;4.00;;;2.10;;
19255;SDS011;9762;52.490;13.410;2023-04-25T00:07:17;2.17;;;1.97;;
19255;SDS011;9762;52.490;13.410;2023-04-25T00:09:42;2.87;;;1.70;;
19255;SDS011;9762;52.490;13.410;2023-04-25T00:12:08;2.83;;;2.10;;
19255;SDS011;9762;52.490;13.410;2023-04-25T00:14:34;3.00;;;1.93;;
19255;SDS011;9762;52.490;13.410;2023-04-25T00:17:00;2.13;;;1.90;;
19255;SDS011;9762;52.490;13.410;2023-04-25T00:19:27;3.97;;;2.07;;
19255;SDS011;9762;52.490;13.410;2023-04-25T00:21:53;2.87;;;1.70;;
19255;SDS011;9762;52.490;13.410;2023-04-25T00:24:19;2.63;;;1.90;;
19255;SDS011;9762;52.490;13.410;2023-04-25T00:26:45;2.10;;;1.80;;
19255;SDS011;9762;52.490;13.410;2023-04-25T00:29:11;1.87;;;1.77;;
19255;SDS011;9762;52.490;13.410;2023-04-25T00:31:36;3.70;;;2.10;;
19255;SDS011;9762;52.490;13.410;2023-04-25T00:34:02;3.10;;;1.90;;
19255;SDS011;9762;52.490;13.410;2023-04-25T00:36:28;2.23;;;2.00;;
19255;SDS011;9762;52.490;13.410;2023-04-25T00:38:53;5.63;;;2.97;;
19255;SDS011;9762;52.490;13.410;2023-04-25T00:41:20;4.17;;;2.20;;
19255;SDS011;9762;52.490;13.410;2023-04-25T00:43:45;3.13;;;2.00;;
19255;SDS011;9762;52.490;13.410;2023-04-25T00:46:13;2.93;;;1.60;;
19255;SDS011;9762;52.490;13.410;2023-04-25T00:48:38;5.03;;;2.30;;
19255;SDS011;9762;52.490;13.410;2023-04-25T00:51:04;5.23;;;2.30;;
19255;SDS011;9762;52.490;13.410;2023-04-25T00:53:30;5.93;;;4.00;;
19255;SDS011;9762;52.490;13.410;2023-04-25T00:55:57;4.60;;;2.87;;
19255;SDS011;9762;52.490;13.410;2023-04-25T00:58:23;3.10;;;2.30;;
19255;SDS011;9762;52.490;13.410;2023-04-25T01:00:50;4.57;;;2.43;;
19255;SDS011;9762;52.490;13.410;2023-04-25T01:03:20;2.60;;;1.87;;
19255;SDS011;9762;52.490;13.410;2023-04-25T01:05:46;3.80;;;2.30;;
19255;SDS011;9762;52.490;13.410;2023-04-25T01:08:13;2.30;;;2.10;;
19255;SDS011;9762;52.490;13.410;2023-04-25T01:10:39;4.47;;;2.30;;
19255;SDS011;9762;52.490;13.410;2023-04-25T01:13:05;10.20;;;2.83;;
19255;SDS011;9762;52.490;13.410;2023-04-25T01:15:32;3.47;;;2.80;;
19255;SDS011;9762;52.490;13.410;2023-04-25T01:17:57;2.93;;;2.60;;
19255;SDS011;9762;52.490;13.410;2023-04-25T01:20:25;5.10;;;2.83;;
19255;SDS011;9762;52.490;13.410;2023-04-25T01:22:53;5.53;;;2.90;;
19255;SDS011;9762;52.490;13.410;2023-04-25T01:25:20;3.67;;;2.67;;
19255;SDS011;9762;52.490;13.410;2023-04-25T01:27:46;2.27;;;2.17;;
19255;SDS011;9762;52.490;13.410;2023-04-25T01:30:12;4.97;;;2.47;;
19255;SDS011;9762;52.490;13.410;2023-04-25T01:32:38;5.53;;;2.40;;
19255;SDS011;9762;52.490;13.410;2023-04-25T01:35:07;4.73;;;2.83;;
19255;SDS011;9762;52.490;13.410;2023-04-25T01:37:38;4.33;;;2.70;;
19255;SDS011;9762;52.490;13.410;2023-04-25T01:40:04;3.97;;;2.73;;
19255;SDS011;9762;52.490;13.410;2023-04-25T01:42:32;5.03;;;2.50;;
19255;SDS011;9762;52.490;13.410;2023-04-25T01:44:59;2.63;;;2.33;;
19255;SDS011;9762;52.490;13.410;2023-04-25T01:47:25;4.50;;;2.47;;
19255;SDS011;9762;52.490;13.410;2023-04-25T01:49:50;4.97;;;2.50;;
19255;SDS011;9762;52.490;13.410;2023-04-25T01:52:16;4.90;;;2.57;;
19255;SDS011;9762;52.490;13.410;2023-04-25T01:54:42;5.53;;;3.33;;
19255;SDS011;9762;52.490;13.410;2023-04-25T01:57:12;3.63;;;2.30;;
19255;SDS011;9762;52.490;13.410;2023-04-25T01:59:38;4.10;;;2.50;;
19255;SDS011;9762;52.490;13.410;2023-04-25T02:02:04;7.47;;;2.83;;
19255;SDS011;9762;52.490;13.410;2023-04-25T02:04:30;7.90;;;2.37;;
19255;SDS011;9762;52.490;13.410;2023-04-25T02:06:56;2.70;;;2.43;;
19255;SDS011;9762;52.490;13.410;2023-04-25T02:09:22;5.83;;;2.70;;
19255;SDS011;9762;52.490;13.410;2023-04-25T02:11:48;3.30;;;2.57;;
19255;SDS011;9762;52.490;13.410;2023-04-25T02:14:13;6.17;;;2.73;;
19255;SDS011;9762;52.490;13.410;2023-04-25T02:16:39;3.70;;;2.60;;
19255;SDS011;9762;52.490;13.410;2023-04-25T02:19:05;5.97;;;3.23;;
19255;SDS011;9762;52.490;13.410;2023-04-25T02:21:31;2.73;;;2.53;;
19255;SDS011;9762;52.490;13.410;2023-04-25T02:23:57;7.17;;;2.97;;
19255;SDS011;9762;52.490;13.410;2023-04-25T02:26:23;3.47;;;3.10;;
19255;SDS011;9762;52.490;13.410;2023-04-25T02:28:49;5.30;;;3.47;;
19255;SDS011;9762;52.490;13.410;2023-04-25T02:31:15;4.23;;;2.83;;
19255;SDS011;9762;52.490;13.410;2023-04-25T02:33:41;7.70;;;4.00;;
19255;SDS011;9762;52.490;13.410;2023-04-25T02:36:06;4.37;;;2.93;;
19255;SDS011;9762;52.490;13.410;2023-04-25T02:38:32;5.87;;;3.03;;
19255;SDS011;9762;52.490;13.410;2023-04-25T02:40:58;7.67;;;3.60;;
19255;SDS011;9762;52.490;13.410;2023-04-25T02:43:23;5.90;;;3.00;;
19255;SDS011;9762;52.490;13.410;2023-04-25T02:45:49;3.90;;;2.83;;
19255;SDS011;9762;52.490;13.410;2023-04-25T02:48:15;5.30;;;3.00;;
19255;SDS011;9762;52.490;13.410;2023-04-25T02:50:40;4.30;;;2.90;;
19255;SDS011;9762;52.490;13.410;2023-04-25T02:53:06;6.13;;;3.20;;
19255;SDS011;9762;52.490;13.410;2023-04-25T02:55:32;7.93;;;2.90;;
19255;SDS011;9762;52.490;13.410;2023-04-25T02:57:57;7.83;;;3.27;;
19255;SDS011;9762;52.490;13.410;2023-04-25T03:00:23;5.90;;;3.40;;
19255;SDS011;9762;52.490;13.410;2023-04-25T03:02:49;4.07;;;2.80;;
19255;SDS011;9762;52.490;13.410;2023-04-25T03:05:15;5.40;;;3.20;;
19255;SDS011;9762;52.490;13.410;2023-04-25T03:07:42;3.73;;;3.00;;
19255;SDS011;9762;52.490;13.410;2023-04-25T03:10:09;4.40;;;3.37;;
19255;SDS011;9762;52.490;13.410;2023-04-25T03:12:35;6.33;;;3.63;;
19255;SDS011;9762;52.490;13.410;2023-04-25T03:15:01;5.20;;;3.40;;
19255;SDS011;9762;52.490;13.410;2023-04-25T03:17:27;4.30;;;3.60;;
19255;SDS011;9762;52.490;13.410;2023-04-25T03:19:52;7.50;;;3.40;;
19255;SDS011;9762;52.490;13.410;2023-04-25T03:22:18;5.87;;;3.33;;
19255;SDS011;9762;52.490;13.410;2023-04-25T03:24:43;7.47;;;3.37;;
19255;SDS011;9762;52.490;13.410;2023-04-25T03:27:09;6.47;;;3.50;;
19255;SDS011;9762;52.490;13.410;2023-04-25T03:29:35;5.93;;;3.53;;
19255;SDS011;9762;52.490;13.410;2023-04-25T03:32:00;7.17;;;3.37;;
19255;SDS011;9762;52.490;13.410;2023-04-25T03:34:26;4.80;;;3.50;;
19255;SDS011;9762;52.490;13.410;2023-04-25T03:36:52;7.93;;;3.47;;
19255;SDS011;9762;52.490;13.410;2023-04-25T03:39:17;5.67;;;3.40;;
19255;SDS011;9762;52.490;13.410;2023-04-25T03:41:43;4.70;;;3.73;;
19255;SDS011;9762;52.490;13.410;2023-04-25T03:44:08;5.60;;;3.60;;
19255;SDS011;9762;52.490;13.410;2023-04-25T03:46:34;5.77;;;3.53;;
19255;SDS011;9762;52.490;13.410;2023-04-25T03:48:59;4.57;;;3.40;;
19255;SDS011;9762;52.490;13.410;2023-04-25T03:51:25;6.07;;;3.37;;
19255;SDS011;9762;52.490;13.410;2023-04-25T03:53:51;6.70;;;3.43;;
19255;SDS011;9762;52.490;13.410;2023-04-25T03:56:17;9.63;;;3.83;;
19255;SDS011;9762;52.490;13.410;2023-04-25T03:58:43;5.40;;;3.20;;
19255;SDS011;9762;52.490;13.410;2023-04-25T04:01:09;6.10;;;3.37;;
19255;SDS011;9762;52.490;13.410;2023-04-25T04:03:35;5.67;;;3.33;;
19255;SDS011;9762;52.490;13.410;2023-04-25T04:06:05;4.63;;;3.80;;
19255;SDS011;9762;52.490;13.410;2023-04-25T04:08:31;4.60;;;3.13;;
19255;SDS011;9762;52.490;13.410;2023-04-25T04:10:58;5.57;;;3.13;;
19255;SDS011;9762;52.490;13.410;2023-04-25T04:13:25;7.27;;;3.30;;
19255;SDS011;9762;52.490;13.410;2023-04-25T04:15:51;5.90;;;3.20;;
19255;SDS011;9762;52.490;13.410;2023-04-25T04:18:17;5.47;;;3.37;;
19255;SDS011;9762;52.490;13.410;2023-04-25T04:20:43;5.30;;;2.70;;
19255;SDS011;9762;52.490;13.410;2023-04-25T04:23:09;9.67;;;3.73;;
19255;SDS011;9762;52.490;13.410;2023-04-25T04:25:35;7.87;;;3.50;;
19255;SDS011;9762;52.490;13.410;2023-04-25T04:28:01;5.87;;;3.60;;
19255;SDS011;9762;52.490;13.410;2023-04-25T04:30:27;5.87;;;3.93;;
19255;SDS011;9762;52.490;13.410;2023-04-25T04:32:56;10.73;;;3.67;;
19255;SDS011;9762;52.490;13.410;2023-04-25T04:35:22;3.93;;;3.17;;
19255;SDS011;9762;52.490;13.410;2023-04-25T04:37:48;5.33;;;3.07;;
19255;SDS011;9762;52.490;13.410;2023-04-25T04:40:14;5.43;;;3.40;;
19255;SDS011;9762;52.490;13.410;2023-04-25T04:42:41;4.87;;;2.70;;
19255;SDS011;9762;52.490;13.410;2023-04-25T04:45:08;4.67;;;3.30;;
19255;SDS011;9762;52.490;13.410;2023-04-25T04:47:35;5.23;;;3.53;;
19255;SDS011;9762;52.490;13.410;2023-04-25T04:50:01;7.23;;;3.57;;
19255;SDS011;9762;52.490;13.410;2023-04-25T04:52:36;5.10;;;3.07;;
19255;SDS011;9762;52.490;13.410;2023-04-25T04:55:03;4.93;;;3.73;;
19255;SDS011;9762;52.490;13.410;2023-04-25T04:57:30;5.33;;;3.07;;
19255;SDS011;9762;52.490;13.410;2023-04-25T04:59:58;7.03;;;3.30;;
19255;SDS011;9762;52.490;13.410;2023-04-25T05:02:24;6.83;;;3.30;;
19255;SDS011;9762;52.490;13.410;2023-04-25T05:04:49;3.87;;;3.27;;
19255;SDS011;9762;52.490;13.410;2023-04-25T05:07:16;3.80;;;3.37;;
19255;SDS011;9762;52.490;13.410;2023-04-25T05:09:42;7.83;;;3.07;;
19255;SDS011;9762;52.490;13.410;2023-04-25T05:12:08;6.03;;;3.57;;
19255;SDS011;9762;52.490;13.410;2023-04-25T05:14:33;7.27;;;3.43;;
19255;SDS011;9762;52.490;13.410;2023-04-25T05:16:59;5.90;;;3.77;;
19255;SDS011;9762;52.490;13.410;2023-04-25T05:19:25;10.77;;;4.23;;
19255;SDS011;9762;52.490;13.410;2023-04-25T05:21:51;6.97;;;3.77;;
19255;SDS011;9762;52.490;13.410;2023-04-25T05:24:17;7.00;;;3.80;;
19255;SDS011;9762;52.490;13.410;2023-04-25T05:26:42;8.63;;;3.47;;
19255;SDS011;9762;52.490;13.410;2023-04-25T05:29:08;7.13;;;3.70;;
19255;SDS011;9762;52.490;13.410;2023-04-25T05:31:36;3.80;;;3.17;;
19255;SDS011;9762;52.490;13.410;2023-04-25T05:34:02;8.60;;;3.67;;
19255;SDS011;9762;52.490;13.410;2023-04-25T05:36:27;7.20;;;3.13;;
19255;SDS011;9762;52.490;13.410;2023-04-25T05:38:53;5.83;;;3.57;;
19255;SDS011;9762;52.490;13.410;2023-04-25T05:41:19;6.60;;;3.40;;
19255;SDS011;9762;52.490;13.410;2023-04-25T05:43:45;7.73;;;3.47;;
19255;SDS011;9762;52.490;13.410;2023-04-25T05:46:12;5.70;;;3.10;;
19255;SDS011;9762;52.490;13.410;2023-04-25T05:48:38;3.23;;;2.70;;
19255;SDS011;9762;52.490;13.410;2023-04-25T05:51:04;5.87;;;3.10;;
19255;SDS011;9762;52.490;13.410;2023-04-25T05:53:30;7.97;;;3.40;;
19255;SDS011;9762;52.490;13.410;2023-04-25T05:55:55;9.40;;;3.67;;
19255;SDS011;9762;52.490;13.410;2023-04-25T05:58:21;5.10;;;3.77;;
19255;SDS011;9762;52.490;13.410;2023-04-25T06:00:47;5.70;;;3.67;;
19255;SDS011;9762;52.490;13.410;2023-04-25T06:03:12;4.20;;;3.50;;
19255;SDS011;9762;52.490;13.410;2023-04-25T06:05:43;7.83;;;4.13;;
19255;SDS011;9762;52.490;13.410;2023-04-25T06:08:09;6.63;;;3.97;;
19255;SDS011;9762;52.490;13.410;2023-04-25T06:10:35;6.87;;;3.70;;
19255;SDS011;9762;52.490;13.410;2023-04-25T06:13:01;15.67;;;4.63;;
19255;SDS011;9762;52.490;13.410;2023-04-25T06:15:27;5.00;;;3.50;;
19255;SDS011;9762;52.490;13.410;2023-04-25T06:17:52;6.20;;;4.27;;
19255;SDS011;9762;52.490;13.410;2023-04-25T06:20:18;7.43;;;4.20;;
19255;SDS011;9762;52.490;13.410;2023-04-25T06:22:48;5.23;;;4.00;;
19255;SDS011;9762;52.490;13.410;2023-04-25T06:25:14;10.80;;;4.10;;
19255;SDS011;9762;52.490;13.410;2023-04-25T06:27:40;6.30;;;3.67;;
19255;SDS011;9762;52.490;13.410;2023-04-25T06:30:05;6.73;;;4.07;;
19255;SDS011;9762;52.490;13.410;2023-04-25T06:32:31;7.87;;;3.73;;
19255;SDS011;9762;52.490;13.410;2023-04-25T06:34:59;9.33;;;4.10;;
19255;SDS011;9762;52.490;13.410;2023-04-25T06:37:25;8.07;;;4.50;;
19255;SDS011;9762;52.490;13.410;2023-04-25T06:39:50;11.27;;;4.90;;
19255;SDS011;9762;52.490;13.410;2023-04-25T06:42:16;7.57;;;4.07;;
19255;SDS011;9762;52.490;13.410;2023-04-25T06:44:42;7.30;;;3.90;;
19255;SDS011;9762;52.490;13.410;2023-04-25T06:47:07;7.20;;;4.33;;
19255;SDS011;9762;52.490;13.410;2023-04-25T06:49:33;5.50;;;4.00;;
19255;SDS011;9762;52.490;13.410;2023-04-25T06:51:58;6.70;;;4.07;;
19255;SDS011;9762;52.490;13.410;2023-04-25T06:54:24;7.57;;;4.00;;
19255;SDS011;9762;52.490;13.410;2023-04-25T06:56:52;7.07;;;4.00;;
19255;SDS011;9762;52.490;13.410;2023-04-25T06:59:18;7.37;;;5.30;;
19255;SDS011;9762;52.490;13.410;2023-04-25T07:01:44;7.63;;;4.27;;
19255;SDS011;9762;52.490;13.410;2023-04-25T07:04:10;6.40;;;4.00;;
19255;SDS011;9762;52.490;13.410;2023-04-25T07:06:35;6.43;;;3.67;;
19255;SDS011;9762;52.490;13.410;2023-04-25T07:09:07;5.53;;;3.90;;
19255;SDS011;9762;52.490;13.410;2023-04-25T07:11:36;7.63;;;5.50;;
19255;SDS011;9762;52.490;13.410;2023-04-25T07:14:02;4.90;;;3.70;;
19255;SDS011;9762;52.490;13.410;2023-04-25T07:16:28;6.80;;;3.80;;
19255;SDS011;9762;52.490;13.410;2023-04-25T07:18:54;3.90;;;3.50;;
19255;SDS011;9762;52.490;13.410;2023-04-25T07:21:19;9.20;;;3.50;;
19255;SDS011;9762;52.490;13.410;2023-04-25T07:23:45;3.90;;;3.40;;
19255;SDS011;9762;52.490;13.410;2023-04-25T07:26:11;7.73;;;4.00;;
19255;SDS011;9762;52.490;13.410;2023-04-25T07:28:37;8.57;;;4.00;;
19255;SDS011;9762;52.490;13.410;2023-04-25T07:31:03;6.33;;;3.60;;
19255;SDS011;9762;52.490;13.410;2023-04-25T07:33:28;8.80;;;3.93;;
19255;SDS011;9762;52.490;13.410;2023-04-25T07:35:54;6.40;;;3.80;;
19255;SDS011;9762;52.490;13.410;2023-04-25T07:38:20;7.87;;;4.07;;
19255;SDS011;9762;52.490;13.410;2023-04-25T07:40:47;11.30;;;3.97;;
19255;SDS011;9762;52.490;13.410;2023-04-25T07:43:13;7.73;;;3.70;;
19255;SDS011;9762;52.490;13.410;2023-04-25T07:45:41;6.50;;;3.57;;
19255;SDS011;9762;52.490;13.410;2023-04-25T07:48:07;9.30;;;4.07;;
19255;SDS011;9762;52.490;13.410;2023-04-25T07:50:33;9.60;;;3.70;;
19255;SDS011;9762;52.490;13.410;2023-04-25T07:52:59;7.80;;;3.93;;
19255;SDS011;9762;52.490;13.410;2023-04-25T07:55:24;9.67;;;4.30;;
19255;SDS011;9762;52.490;13.410;2023-04-25T07:57:50;9.87;;;4.30;;
19255;SDS011;9762;52.490;13.410;2023-04-25T08:00:15;14.20;;;4.47;;
19255;SDS011;9762;52.490;13.410;2023-04-25T08:02:41;13.67;;;3.87;;
19255;SDS011;9762;52.490;13.410;2023-04-25T08:05:07;11.73;;;4.27;;
19255;SDS011;9762;52.490;13.410;2023-04-25T08:07:36;15.63;;;4.03;;
19255;SDS011;9762;52.490;13.410;2023-04-25T08:10:02;16.53;;;5.07;;
19255;SDS011;9762;52.490;13.410;2023-04-25T08:12:28;11.07;;;3.97;;
19255;SDS011;9762;52.490;13.410;2023-04-25T08:14:54;16.37;;;4.33;;
19255;SDS011;9762;52.490;13.410;2023-04-25T08:17:20;15.83;;;4.30;;
19255;SDS011;9762;52.490;13.410;2023-04-25T08:19:45;11.47;;;3.60;;
19255;SDS011;9762;52.490;13.410;2023-04-25T08:22:11;19.40;;;4.07;;
19255;SDS011;9762;52.490;13.410;2023-04-25T08:24:37;15.23;;;4.20;;
19255;SDS011;9762;52.490;13.410;2023-04-25T08:27:03;14.07;;;4.43;;
19255;SDS011;9762;52.490;13.410;2023-04-25T08:29:28;14.67;;;4.37;;
19255;SDS011;9762;52.490;13.410;2023-04-25T08:31:54;15.33;;;4.60;;
19255;SDS011;9762;52.490;13.410;2023-04-25T08:34:20;19.27;;;4.60;;
19255;SDS011;9762;52.490;13.410;2023-04-25T08:36:45;23.00;;;4.70;;
19255;SDS011;9762;52.490;13.410;2023-04-25T08:39:11;12.57;;;4.13;;
19255;SDS011;9762;52.490;13.410;2023-04-25T08:41:38;11.90;;;3.70;;
19255;SDS011;9762;52.490;13.410;2023-04-25T08:44:05;18.37;;;3.93;;
19255;SDS011;9762;52.490;13.410;2023-04-25T08:46:34;11.80;;;3.80;;
19255;SDS011;9762;52.490;13.410;2023-04-25T08:49:02;15.63;;;3.90;;
19255;SDS011;9762;52.490;13.410;2023-04-25T08:51:30;13.93;;;3.90;;
19255;SDS011;9762;52.490;13.410;2023-04-25T08:53:57;12.40;;;3.77;;
19255;SDS011;9762;52.490;13.410;2023-04-25T08:56:37;9.27;;;4.07;;
19255;SDS011;9762;52.490;13.410;2023-04-25T08:59:05;10.60;;;3.50;;
19255;SDS011;9762;52.490;13.410;2023-04-25T09:01:33;15.40;;;3.90;;
19255;SDS011;9762;52.490;13.410;2023-04-25T09:04:00;10.87;;;3.00;;
19255;SDS011;9762;52.490;13.410;2023-04-25T09:06:27;14.57;;;3.47;;
19255;SDS011;9762;52.490;13.410;2023-04-25T09:09:06;10.43;;;3.17;;
19255;SDS011;9762;52.490;13.410;2023-04-25T09:11:34;10.87;;;2.93;;
19255;SDS011;9762;52.490;13.410;2023-04-25T09:14:14;16.90;;;3.70;;
19255;SDS011;9762;52.490;13.410;2023-04-25T09:19:26;9.03;;;3.23;;
19255;SDS011;9762;52.490;13.410;2023-04-25T09:21:57;13.40;;;3.50;;
19255;SDS011;9762;52.490;13.410;2023-04-25T09:24:36;15.40;;;3.63;;
19255;SDS011;9762;52.490;13.410;2023-04-25T09:27:08;6.23;;;3.23;;
19255;SDS011;9762;52.490;13.410;2023-04-25T09:29:36;9.93;;;3.87;;
19255;SDS011;9762;52.490;13.410;2023-04-25T09:32:20;9.10;;;2.93;;
19255;SDS011;9762;52.490;13.410;2023-04-25T09:34:48;13.10;;;3.43;;
19255;SDS011;9762;52.490;13.410;2023-04-25T09:37:28;11.83;;;3.57;;
19255;SDS011;9762;52.490;13.410;2023-04-25T09:39:59;9.33;;;3.70;;
19255;SDS011;9762;52.490;13.410;2023-04-25T09:42:27;11.80;;;3.60;;
19255;SDS011;9762;52.490;13.410;2023-04-25T09:44:55;11.97;;;3.87;;
19255;SDS011;9762;52.490;13.410;2023-04-25T09:47:24;10.90;;;3.33;;
19255;SDS011;9762;52.490;13.410;2023-04-25T09:49:54;8.77;;;3.57;;
19255;SDS011;9762;52.490;13.410;2023-04-25T09:52:23;9.43;;;3.17;;
19255;SDS011;9762;52.490;13.410;2023-04-25T09:54:50;8.60;;;3.47;;
19255;SDS011;9762;52.490;13.410;2023-04-25T09:57:17;12.00;;;5.73;;
19255;SDS011;9762;52.490;13.410;2023-04-25T09:59:48;14.30;;;3.80;;
19255;SDS011;9762;52.490;13.410;2023-04-25T10:02:16;6.27;;;3.10;;
19255;SDS011;9762;52.490;13.410;2023-04-25T10:04:47;9.17;;;3.03;;
19255;SDS011;9762;52.490;13.410;2023-04-25T10:07:13;14.33;;;3.17;;
19255;SDS011;9762;52.490;13.410;2023-04-25T10:09:40;11.77;;;3.20;;
19255;SDS011;9762;52.490;13.410;2023-04-25T10:12:07;8.77;;;3.30;;
19255;SDS011;9762;52.490;13.410;2023-04-25T10:14:33;7.70;;;3.27;;
19255;SDS011;9762;52.490;13.410;2023-04-25T10:17:00;6.27;;;3.03;;
19255;SDS011;9762;52.490;13.410;2023-04-25T10:19:26;10.77;;;3.53;;
19255;SDS011;9762;52.490;13.410;2023-04-25T10:24:34;11.43;;;2.87;;
19255;SDS011;9762;52.490;13.410;2023-04-25T10:27:01;12.73;;;2.90;;
19255;SDS011;9762;52.490;13.410;2023-04-25T10:29:27;7.57;;;2.80;;
19255;SDS011;9762;52.490;13.410;2023-04-25T10:31:53;7.27;;;2.63;;
19255;SDS011;9762;52.490;13.410;2023-04-25T10:34:19;8.93;;;2.87;;
19255;SDS011;9762;52.490;13.410;2023-04-25T10:36:51;12.17;;;3.13;;
19255;SDS011;9762;52.490;13.410;2023-04-25T10:39:24;8.60;;;2.70;;
19255;SDS011;9762;52.490;13.410;2023-04-25T10:41:56;10.70;;;2.67;;
19255;SDS011;9762;52.490;13.410;2023-04-25T10:44:25;16.83;;;3.70;;
19255;SDS011;9762;52.490;13.410;2023-04-25T10:46:54;9.80;;;2.67;;
19255;SDS011;9762;52.490;13.410;2023-04-25T10:49:33;9.30;;;3.10;;
19255;SDS011;9762;52.490;13.410;2023-04-25T10:54:51;7.37;;;2.87;;
19255;SDS011;9762;52.490;13.410;2023-04-25T10:59:54;7.47;;;2.90;;
19255;SDS011;9762;52.490;13.410;2023-04-25T11:02:25;9.47;;;2.73;;
19255;SDS011;9762;52.490;13.410;2023-04-25T11:04:53;11.40;;;3.37;;
19255;SDS011;9762;52.490;13.410;2023-04-25T11:07:35;6.53;;;2.57;;
19255;SDS011;9762;52.490;13.410;2023-04-25T11:10:15;11.30;;;3.07;;
19255;SDS011;9762;52.490;13.410;2023-04-25T11:12:41;7.13;;;2.63;;
19255;SDS011;9762;52.490;13.410;2023-04-25T11:15:07;6.97;;;2.80;;
19255;SDS011;9762;52.490;13.410;2023-04-25T11:17:33;12.13;;;2.83;;
19255;SDS011;9762;52.490;13.410;2023-04-25T11:19:59;8.03;;;2.67;;
19255;SDS011;9762;52.490;13.410;2023-04-25T11:22:28;2.90;;;2.30;;
19255;SDS011;9762;52.490;13.410;2023-04-25T11:24:54;11.13;;;2.93;;
19255;SDS011;9762;52.490;13.410;2023-04-25T11:27:20;8.93;;;3.37;;
19255;SDS011;9762;52.490;13.410;2023-04-25T11:29:46;14.93;;;3.37;;
19255;SDS011;9762;52.490;13.410;2023-04-25T11:32:14;10.50;;;3.00;;
19255;SDS011;9762;52.490;13.410;2023-04-25T11:34:42;6.47;;;2.97;;
19255;SDS011;9762;52.490;13.410;2023-04-25T11:37:09;5.43;;;2.60;;
19255;SDS011;9762;52.490;13.410;2023-04-25T11:39:36;10.47;;;2.40;;
19255;SDS011;9762;52.490;13.410;2023-04-25T11:42:02;5.90;;;2.20;;
19255;SDS011;9762;52.490;13.410;2023-04-25T11:44:29;9.00;;;2.00;;
19255;SDS011;9762;52.490;13.410;2023-04-25T11:46:55;10.40;;;2.40;;
19255;SDS011;9762;52.490;13.410;2023-04-25T11:49:21;7.90;;;2.30;;
19255;SDS011;9762;52.490;13.410;2023-04-25T11:51:47;7.47;;;2.40;;
19255;SDS011;9762;52.490;13.410;2023-04-25T11:54:13;8.83;;;2.47;;
19255;SDS011;9762;52.490;13.410;2023-04-25T11:56:43;3.47;;;2.27;;
19255;SDS011;9762;52.490;13.410;2023-04-25T11:59:09;6.47;;;2.50;;
19255;SDS011;9762;52.490;13.410;2023-04-25T12:01:36;4.03;;;1.97;;
19255;SDS011;9762;52.490;13.410;2023-04-25T12:04:16;7.53;;;2.23;;
19255;SDS011;9762;52.490;13.410;2023-04-25T12:06:46;7.00;;;2.30;;
19255;SDS011;9762;52.490;13.410;2023-04-25T12:09:14;8.57;;;2.80;;
19255;SDS011;9762;52.490;13.410;2023-04-25T12:11:43;6.80;;;2.73;;
19255;SDS011;9762;52.490;13.410;2023-04-25T12:14:26;18.07;;;2.77;;
19255;SDS011;9762;52.490;13.410;2023-04-25T12:16:57;6.97;;;2.50;;
19255;SDS011;9762;52.490;13.410;2023-04-25T12:19:31;6.20;;;2.97;;
19255;SDS011;9762;52.490;13.410;2023-04-25T12:22:02;9.27;;;3.03;;
19255;SDS011;9762;52.490;13.410;2023-04-25T12:24:28;8.07;;;2.80;;
19255;SDS011;9762;52.490;13.410;2023-04-25T12:26:58;6.00;;;1.93;;
19255;SDS011;9762;52.490;13.410;2023-04-25T12:29:27;11.97;;;2.80;;
19255;SDS011;9762;52.490;13.410;2023-04-25T12:31:53;7.13;;;2.43;;
19255;SDS011;9762;52.490;13.410;2023-04-25T12:34:20;6.17;;;2.27;;
19255;SDS011;9762;52.490;13.410;2023-04-25T12:36:47;7.23;;;2.03;;
19255;SDS011;9762;52.490;13.410;2023-04-25T12:39:16;10.00;;;2.57;;
19255;SDS011;9762;52.490;13.410;2023-04-25T12:41:44;7.17;;;2.07;;
19255;SDS011;9762;52.490;13.410;2023-04-25T12:44:10;2.43;;;2.20;;
19255;SDS011;9762;52.490;13.410;2023-04-25T12:46:37;3.83;;;2.20;;
19255;SDS011;9762;52.490;13.410;2023-04-25T12:49:05;8.70;;;2.77;;
19255;SDS011;9762;52.490;13.410;2023-04-25T12:51:32;3.63;;;2.03;;
19255;SDS011;9762;52.490;13.410;2023-04-25T12:54:02;13.33;;;3.73;;
19255;SDS011;9762;52.490;13.410;2023-04-25T12:56:29;6.53;;;2.50;;
19255;SDS011;9762;52.490;13.410;2023-04-25T12:58:55;7.10;;;2.50;;
19255;SDS011;9762;52.490;13.410;2023-04-25T13:01:21;6.87;;;2.30;;
19255;SDS011;9762;52.490;13.410;2023-04-25T13:03:47;3.20;;;1.97;;
19255;SDS011;9762;52.490;13.410;2023-04-25T13:06:14;7.30;;;2.33;;
19255;SDS011;9762;52.490;13.410;2023-04-25T13:08:40;3.90;;;1.60;;
19255;SDS011;9762;52.490;13.410;2023-04-25T13:11:06;5.70;;;2.30;;
19255;SDS011;9762;52.490;13.410;2023-04-25T13:13:32;3.80;;;2.10;;
19255;SDS011;9762;52.490;13.410;2023-04-25T13:15:59;7.63;;;2.53;;
19255;SDS011;9762;52.490;13.410;2023-04-25T13:18:26;2.73;;;2.40;;
19255;SDS011;9762;52.490;13.410;2023-04-25T13:20:52;4.40;;;1.73;;
19255;SDS011;9762;52.490;13.410;2023-04-25T13:23:18;3.93;;;2.20;;
19255;SDS011;9762;52.490;13.410;2023-04-25T13:25:45;7.50;;;3.13;;
19255;SDS011;9762;52.490;13.410;2023-04-25T13:28:11;4.67;;;2.50;;
19255;SDS011;9762;52.490;13.410;2023-04-25T13:30:37;7.83;;;2.50;;
19255;SDS011;9762;52.490;13.410;2023-04-25T13:33:03;2.37;;;2.00;;
19255;SDS011;9762;52.490;13.410;2023-04-25T13:35:29;7.20;;;1.80;;
19255;SDS011;9762;52.490;13.410;2023-04-25T13:37:55;5.77;;;2.20;;
19255;SDS011;9762;52.490;13.410;2023-04-25T13:40:21;7.00;;;2.47;;
19255;SDS011;9762;52.490;13.410;2023-04-25T13:42:47;5.40;;;1.90;;
19255;SDS011;9762;52.490;13.410;2023-04-25T13:45:13;7.10;;;2.67;;
19255;SDS011;9762;52.490;13.410;2023-04-25T13:47:39;7.53;;;2.20;;
19255;SDS011;9762;52.490;13.410;2023-04-25T13:50:05;4.43;;;2.10;;
19255;SDS011;9762;52.490;13.410;2023-04-25T13:52:32;5.10;;;2.03;;
19255;SDS011;9762;52.490;13.410;2023-04-25T13:54:57;4.27;;;1.90;;
19255;SDS011;9762;52.490;13.410;2023-04-25T13:57:23;4.77;;;2.53;;
19255;SDS011;9762;52.490;13.410;2023-04-25T13:59:50;9.43;;;3.93;;
19255;SDS011;9762;52.490;13.410;2023-04-25T14:02:16;5.47;;;2.90;;
19255;SDS011;9762;52.490;13.410;2023-04-25T14:04:42;5.50;;;2.13;;
19255;SDS011;9762;52.490;13.410;2023-04-25T14:07:08;5.43;;;2.67;;
19255;SDS011;9762;52.490;13.410;2023-04-25T14:09:35;5.40;;;2.20;;
19255;SDS011;9762;52.490;13.410;2023-04-25T14:12:01;4.87;;;2.20;;
19255;SDS011;9762;52.490;13.410;2023-04-25T14:14:27;10.47;;;2.50;;
19255;SDS011;9762;52.490;13.410;2023-04-25T14:16:53;5.13;;;2.07;;
19255;SDS011;9762;52.490;13.410;2023-04-25T14:19:19;4.70;;;2.27;;
19255;SDS011;9762;52.490;13.410;2023-04-25T14:21:45;6.23;;;2.47;;
19255;SDS011;9762;52.490;13.410;2023-04-25T14:24:11;5.40;;;2.03;;
19255;SDS011;9762;52.490;13.410;2023-04-25T14:26:38;4.23;;;1.90;;
19255;SDS011;9762;52.490;13.410;2023-04-25T14:29:04;5.63;;;2.30;;
19255;SDS011;9762;52.490;13.410;2023-04-25T14:31:31;4.47;;;2.07;;
19255;SDS011;9762;52.490;13.410;2023-04-25T14:33:57;2.30;;;1.67;;
19255;SDS011;9762;52.490;13.410;2023-04-25T14:36:23;4.27;;;1.93;;
19255;SDS011;9762;52.490;13.410;2023-04-25T14:38:48;5.73;;;1.80;;
19255;SDS011;9762;52.490;13.410;2023-04-25T14:41:14;5.77;;;2.20;;
19255;SDS011;9762;52.490;13.410;2023-04-25T14:43:40;2.57;;;1.53;;
19255;SDS011;9762;52.490;13.410;2023-04-25T14:46:06;5.87;;;1.80;;
19255;SDS011;9762;52.490;13.410;2023-04-25T14:48:32;4.10;;;1.83;;
19255;SDS011;9762;52.490;13.410;2023-04-25T14:50:59;3.77;;;2.20;;
19255;SDS011;9762;52.490;13.410;2023-04-25T14:53:25;6.90;;;2.20;;
19255;SDS011;9762;52.490;13.410;2023-04-25T14:55:52;4.40;;;2.83;;